Time;durP1;ratioP1;P1;durP2;ratioP2;P2;SDS_P1;SDS_P2;PMS_P1;PMS_P2;Temp;Humidity;BMP_temperature;BMP_pressure;BME280_temperature;BME280_humidity;BME280_pressure;Samples;Min_cycle;Max_cycle;Signal;HPM_P1;HPM_P2
2023/05/21 00:01:25;;;;;;;11.50;8.20;;;;;;;15.45;97.58;101263.73;109814;1241;61372;-76
2023/05/21 00:03:54;;;;;;;11.20;8.20;;;;;;;15.40;95.24;101261.67;109791;1245;63172;-75
2023/05/21 00:06:23;;;;;;;9.60;7.30;;;;;;;15.32;95.93;101262.66;109804;1244;57070;-75
2023/05/21 00:08:52;;;;;;;13.10;8.70;;;;;;;15.25;97.87;101262.11;109758;1241;61166;-76
2023/05/21 00:11:21;;;;;;;13.50;8.20;;;;;;;15.18;99.56;101263.23;109831;1241;72300;-75
2023/05/21 00:13:49;;;;;;;8.60;6.70;;;;;;;15.11;99.20;101261.98;109826;1241;71905;-74
2023/05/21 00:16:18;;;;;;;10.30;7.60;;;;;;;15.03;100.00;101266.52;109848;1241;60084;-74
2023/05/21 00:18:53;;;;;;;12.50;7.80;;;;;;;14.89;100.00;101268.89;109800;1246;62433;-74
2023/05/21 00:21:24;;;;;;;11.00;8.30;;;;;;;14.68;100.00;101266.40;109812;1243;62941;-75
2023/05/21 00:23:55;;;;;;;11.70;8.50;;;;;;;14.45;100.00;101265.05;109795;1245;61553;-75
2023/05/21 00:26:23;;;;;;;11.10;8.90;;;;;;;14.30;100.00;101265.76;109769;1241;73719;-74
2023/05/21 00:28:53;;;;;;;12.30;9.00;;;;;;;14.19;100.00;101264.51;109721;1244;61998;-74
2023/05/21 00:31:22;;;;;;;12.50;9.10;;;;;;;14.14;100.00;101266.82;109686;1244;59985;-73
2023/05/21 00:33:51;;;;;;;15.50;9.80;;;;;;;14.08;100.00;101262.08;109593;1245;62510;-73
2023/05/21 00:36:22;;;;;;;12.10;8.70;;;;;;;14.00;100.00;101259.37;109711;1245;62109;-75
2023/05/21 00:38:51;;;;;;;12.10;8.70;;;;;;;13.93;100.00;101262.71;109768;1244;57227;-73
2023/05/21 00:41:21;;;;;;;13.30;8.20;;;;;;;13.92;100.00;101259.25;109768;1245;62781;-75
2023/05/21 00:43:51;;;;;;;11.50;8.00;;;;;;;13.91;100.00;101260.23;109517;1249;72155;-74
2023/05/21 00:46:21;;;;;;;13.00;9.10;;;;;;;13.82;100.00;101260.42;109785;1245;60271;-75
2023/05/21 00:48:51;;;;;;;12.50;9.30;;;;;;;13.71;100.00;101261.23;109639;1244;62434;-74
2023/05/21 00:51:20;;;;;;;11.30;7.80;;;;;;;13.68;100.00;101264.41;109672;1245;62252;-75
2023/05/21 00:53:51;;;;;;;11.20;8.90;;;;;;;13.71;100.00;101261.55;109565;1244;57199;-74
2023/05/21 00:56:22;;;;;;;14.10;9.80;;;;;;;13.66;100.00;101263.91;109454;1247;63429;-74
2023/05/21 00:58:54;;;;;;;13.70;8.90;;;;;;;13.62;100.00;101262.80;109482;1246;71442;-74
2023/05/21 01:01:24;;;;;;;13.90;9.10;;;;;;;13.57;100.00;101261.63;109646;1241;70167;-74
2023/05/21 01:03:56;;;;;;;12.30;8.00;;;;;;;13.47;100.00;101256.57;109695;1244;64551;-74
2023/05/21 01:06:25;;;;;;;12.30;8.30;;;;;;;13.42;100.00;101253.70;109480;1248;57764;-74
2023/05/21 01:08:57;;;;;;;11.20;8.60;;;;;;;13.36;100.00;101255.52;109703;1244;57283;-74
2023/05/21 01:11:38;;;;;;;12.40;8.00;;;;;;;13.34;100.00;101259.67;109596;1241;62878;-74
2023/05/21 01:14:11;;;;;;;12.80;8.70;;;;;;;13.33;100.00;101259.26;109503;1246;61560;-74
2023/05/21 01:16:45;;;;;;;12.10;8.60;;;;;;;13.29;100.00;101262.16;109429;1241;68856;-75
2023/05/21 01:19:21;;;;;;;;;;;;;;;13.24;100.00;101261.29;109394;1245;74199;-74
2023/05/21 01:22:03;;;;;;;14.40;9.20;;;;;;;13.18;100.00;101255.30;109540;1241;61946;-75
2023/05/21 01:24:32;;;;;;;13.20;8.50;;;;;;;13.15;100.00;101252.54;109352;1241;61163;-74
2023/05/21 01:27:05;;;;;;;13.00;9.00;;;;;;;13.18;100.00;101253.84;109334;1247;63438;-74
2023/05/21 01:29:34;;;;;;;12.80;9.30;;;;;;;13.17;100.00;101253.02;109475;1241;71429;-73
2023/05/21 01:32:25;;;;;;;14.30;9.10;;;;;;;13.18;100.00;101251.27;109447;1241;70768;-74
2023/05/21 01:35:13;;;;;;;12.60;9.10;;;;;;;13.18;100.00;101253.85;109388;1244;63565;-74
2023/05/21 01:38:27;;;;;;;9.80;6.90;;;;;;;13.17;100.00;101250.25;109363;1245;62054;-75
2023/05/21 01:41:05;;;;;;;9.70;6.80;;;;;;;13.22;100.00;101249.73;109377;1241;57215;-74
2023/05/21 01:43:41;;;;;;;11.40;6.90;;;;;;;13.28;100.00;101251.02;109510;1241;72741;-73
2023/05/21 01:46:16;;;;;;;8.70;6.20;;;;;;;13.32;100.00;101249.34;109343;1241;72743;-73
2023/05/21 01:48:45;;;;;;;10.50;6.00;;;;;;;13.37;100.00;101248.96;109376;1241;70060;-73
2023/05/21 01:51:15;;;;;;;9.00;6.20;;;;;;;13.41;100.00;101245.67;109441;1241;63722;-73
2023/05/21 01:53:44;;;;;;;10.70;6.90;;;;;;;13.46;100.00;101246.01;109603;1244;57868;-74
2023/05/21 01:56:14;;;;;;;9.70;7.30;;;;;;;13.49;100.00;101247.89;109721;1241;57921;-74
2023/05/21 01:58:43;;;;;;;11.60;6.70;;;;;;;13.43;100.00;101248.14;109657;1244;62735;-73
2023/05/21 02:01:12;;;;;;;15.70;7.20;;;;;;;13.40;100.00;101249.04;109646;1241;60817;-73
2023/05/21 02:03:41;;;;;;;8.60;7.10;;;;;;;13.31;100.00;101246.09;109565;1241;59100;-73
2023/05/21 02:06:10;;;;;;;10.90;7.60;;;;;;;13.19;100.00;101250.80;109575;1241;71785;-73
2023/05/21 02:08:39;;;;;;;12.30;8.00;;;;;;;13.09;100.00;101249.12;109568;1245;62309;-72
2023/05/21 02:11:07;;;;;;;10.30;7.00;;;;;;;12.92;100.00;101251.42;109431;1241;61612;-73
2023/05/21 02:13:41;;;;;;;9.90;7.60;;;;;;;12.77;100.00;101250.91;109707;1241;64165;-73
2023/05/21 02:16:13;;;;;;;10.20;7.20;;;;;;;12.66;100.00;101249.48;109723;1241;61636;-73
2023/05/21 02:18:42;;;;;;;12.90;8.10;;;;;;;12.52;100.00;101250.31;109416;1241;60121;-72
2023/05/21 02:21:11;;;;;;;10.60;7.90;;;;;;;12.40;100.00;101250.80;109480;1241;63115;-73
2023/05/21 02:23:41;;;;;;;16.10;9.00;;;;;;;12.35;100.00;101252.25;109521;1242;57562;-73
2023/05/21 02:26:10;;;;;;;10.60;7.70;;;;;;;12.32;100.00;101252.47;109453;1244;61037;-73
2023/05/21 02:28:39;;;;;;;10.90;7.30;;;;;;;12.37;100.00;101253.86;109560;1241;74223;-72
2023/05/21 02:31:08;;;;;;;13.50;7.50;;;;;;;12.42;100.00;101256.45;109488;1244;72062;-72
2023/05/21 02:33:40;;;;;;;14.00;8.60;;;;;;;12.39;100.00;101254.41;109618;1241;70863;-73
2023/05/21 02:36:11;;;;;;;12.20;7.10;;;;;;;12.36;100.00;101253.89;109591;1241;73181;-73
2023/05/21 02:38:44;;;;;;;12.80;7.90;;;;;;;12.37;100.00;101252.07;109464;1245;63416;-73
2023/05/21 02:41:13;;;;;;;12.30;7.80;;;;;;;12.42;100.00;101249.59;109482;1241;61629;-73
2023/05/21 02:43:41;;;;;;;13.40;7.30;;;;;;;12.46;100.00;101253.00;109503;1241;73154;-73
2023/05/21 02:46:10;;;;;;;12.50;7.80;;;;;;;12.46;100.00;101256.70;109467;1241;61652;-73
2023/05/21 02:48:39;;;;;;;11.20;7.20;;;;;;;12.50;100.00;101262.86;109606;1241;59208;-74
2023/05/21 02:51:08;;;;;;;7.10;5.70;;;;;;;12.57;100.00;101268.65;109583;1244;64076;-74
2023/05/21 02:53:38;;;;;;;9.30;6.40;;;;;;;12.55;100.00;101268.27;109567;1244;57755;-75
2023/05/21 02:56:07;;;;;;;11.20;6.00;;;;;;;12.48;100.00;101274.17;109476;1243;61085;-74
2023/05/21 02:58:35;;;;;;;11.00;6.30;;;;;;;12.44;100.00;101274.27;109622;1241;74710;-74
2023/05/21 03:01:04;;;;;;;10.80;6.80;;;;;;;12.49;100.00;101275.53;109625;1241;61458;-75
2023/05/21 03:03:33;;;;;;;12.00;7.10;;;;;;;12.54;100.00;101277.95;109616;1241;59051;-75
2023/05/21 03:06:03;;;;;;;13.80;8.10;;;;;;;12.61;100.00;101280.02;109602;1244;73794;-74
2023/05/21 03:08:31;;;;;;;11.60;7.00;;;;;;;12.67;100.00;101277.52;109569;1244;62293;-74
2023/05/21 03:11:00;;;;;;;9.00;6.30;;;;;;;12.69;100.00;101274.38;109700;1241;61555;-75
2023/05/21 03:13:29;;;;;;;11.40;5.00;;;;;;;12.79;100.00;101268.63;109481;1241;73598;-74
2023/05/21 03:15:58;;;;;;;10.00;5.20;;;;;;;12.75;100.00;101266.47;109603;1241;70142;-74
2023/05/21 03:18:27;;;;;;;14.50;5.60;;;;;;;12.68;100.00;101260.52;109472;1241;60009;-74
2023/05/21 03:20:57;;;;;;;9.30;5.50;;;;;;;12.65;100.00;101257.78;109584;1241;62373;-73
2023/05/21 03:23:26;;;;;;;7.70;5.00;;;;;;;12.66;100.00;101259.26;109711;1241;57480;-73
2023/05/21 03:25:55;;;;;;;10.20;6.60;;;;;;;12.75;100.00;101260.67;109633;1241;57810;-73
2023/05/21 03:28:24;;;;;;;8.10;6.30;;;;;;;12.84;100.00;101263.02;109725;1241;62118;-73
2023/05/21 03:30:53;;;;;;;8.50;5.10;;;;;;;12.94;100.00;101265.25;109695;1241;62058;-73
2023/05/21 03:34:11;;;;;;;11.70;5.50;;;;;;;13.07;100.00;101269.38;109680;1241;69763;-74
2023/05/21 03:36:41;;;;;;;7.60;4.50;;;;;;;13.16;100.00;101269.19;109663;1244;73886;-74
2023/05/21 03:39:10;;;;;;;10.90;5.60;;;;;;;13.21;100.00;101269.75;109589;1244;60816;-74
2023/05/21 03:41:39;;;;;;;7.80;5.10;;;;;;;13.16;100.00;101271.17;109641;1241;61656;-74
2023/05/21 03:44:14;;;;;;;10.30;4.80;;;;;;;13.17;100.00;101273.33;109501;1241;62617;-74
2023/05/21 03:46:56;;;;;;;9.30;4.80;;;;;;;13.21;100.00;101275.13;109588;1244;72901;-74
2023/05/21 03:49:28;;;;;;;11.20;4.50;;;;;;;13.25;100.00;101276.59;109362;1241;70842;-74
2023/05/21 03:51:57;;;;;;;8.90;4.50;;;;;;;13.35;100.00;101281.67;109466;1242;73199;-74
2023/05/21 03:54:25;;;;;;;9.70;4.70;;;;;;;13.43;100.00;101281.76;109437;1244;61058;-74
2023/05/21 03:56:57;;;;;;;7.20;4.80;;;;;;;13.52;100.00;101276.70;109457;1241;57722;-74
2023/05/21 03:59:27;;;;;;;10.90;5.20;;;;;;;13.59;100.00;101277.07;109445;1241;73528;-74
2023/05/21 04:01:56;;;;;;;9.30;4.90;;;;;;;13.67;100.00;101280.12;109456;1241;71813;-74
2023/05/21 04:04:26;;;;;;;9.60;4.70;;;;;;;13.74;100.00;101279.54;109579;1241;60507;-73
2023/05/21 04:06:55;;;;;;;9.00;4.40;;;;;;;13.73;100.00;101281.96;109548;1241;71333;-74
2023/05/21 04:09:24;;;;;;;9.60;4.90;;;;;;;13.81;99.23;101276.95;109416;1246;60381;-74
2023/05/21 04:11:53;;;;;;;8.60;3.90;;;;;;;13.92;98.77;101276.64;109317;1241;61074;-74
2023/05/21 04:14:22;;;;;;;13.60;5.50;;;;;;;14.06;96.23;101274.30;109457;1241;73159;-75
2023/05/21 04:16:52;;;;;;;7.00;4.00;;;;;;;14.20;93.57;101274.41;109476;1241;72026;-76
2023/05/21 04:19:21;;;;;;;7.00;3.20;;;;;;;14.32;91.63;101278.20;109294;1241;70985;-76
2023/05/21 04:21:50;;;;;;;11.50;4.10;;;;;;;14.40;88.36;101278.24;109536;1241;63760;-75
2023/05/21 04:24:19;;;;;;;8.70;3.60;;;;;;;14.50;87.95;101276.22;109558;1244;57189;-74
2023/05/21 04:27:04;;;;;;;9.90;3.30;;;;;;;14.62;86.89;101274.42;109721;1241;60403;-75
2023/05/21 04:29:33;;;;;;;7.80;3.50;;;;;;;14.68;86.71;101273.45;109624;1241;74107;-75
2023/05/21 04:32:03;;;;;;;6.40;3.80;;;;;;;14.75;85.99;101269.66;109798;1241;72927;-74
2023/05/21 04:34:33;;;;;;;6.40;3.60;;;;;;;14.78;85.49;101270.84;109770;1241;70821;-74
2023/05/21 04:37:02;;;;;;;7.60;3.60;;;;;;;14.90;85.57;101272.31;109754;1241;63601;-74
2023/05/21 04:39:31;;;;;;;8.10;3.80;;;;;;;14.96;84.62;101277.27;109822;1242;58748;-73
2023/05/21 04:42:00;;;;;;;6.40;3.00;;;;;;;14.99;83.74;101272.67;109828;1241;60920;-74
2023/05/21 04:44:29;;;;;;;6.10;3.00;;;;;;;15.03;82.98;101271.59;109825;1241;73115;-81
2023/05/21 04:46:59;;;;;;;7.30;3.20;;;;;;;15.17;82.47;101271.89;109800;1241;72942;-81
2023/05/21 04:49:28;;;;;;;9.70;3.40;;;;;;;15.21;81.83;101270.29;109834;1243;60362;-81
2023/05/21 04:51:58;;;;;;;4.80;3.20;;;;;;;15.27;81.54;101270.16;109848;1241;64030;-81
2023/05/21 04:54:27;;;;;;;7.90;3.20;;;;;;;15.35;81.46;101270.59;109882;1242;57570;-81
2023/05/21 04:56:56;;;;;;;11.20;3.80;;;;;;;15.35;79.81;101269.80;109800;1241;60342;-81
2023/05/21 04:59:25;;;;;;;5.10;2.90;;;;;;;15.47;79.93;101271.60;109763;1241;64189;-81
2023/05/21 05:01:54;;;;;;;8.40;3.60;;;;;;;15.56;78.69;101273.55;109626;1241;61412;-82
2023/05/21 05:04:24;;;;;;;5.30;3.00;;;;;;;15.57;78.54;101268.29;109755;1241;70436;-81
2023/05/21 05:06:52;;;;;;;8.40;3.00;;;;;;;15.62;78.33;101267.90;109761;1240;74204;-81
2023/05/21 05:09:23;;;;;;;8.00;3.40;;;;;;;15.73;78.70;101265.66;109731;1242;57730;-81
2023/05/21 05:11:54;;;;;;;6.30;3.20;;;;;;;15.77;77.68;101260.02;109739;1241;57320;-81
2023/05/21 05:14:25;;;;;;;8.50;3.20;;;;;;;15.88;77.55;101260.98;109630;1241;73509;-81
2023/05/21 05:16:58;;;;;;;6.50;3.20;;;;;;;15.96;77.30;101263.42;109727;1241;72575;-79
2023/05/21 05:19:28;;;;;;;6.80;3.40;;;;;;;15.89;75.96;101261.95;109816;1241;60305;-83
2023/05/21 05:21:57;;;;;;;6.70;3.00;;;;;;;15.91;76.17;101261.27;109577;1241;62502;-76
2023/05/21 05:24:26;;;;;;;7.30;2.70;;;;;;;16.06;75.97;101267.65;109665;1244;57238;-76
2023/05/21 05:26:55;;;;;;;7.10;3.00;;;;;;;16.14;74.98;101265.96;109567;1241;57191;-79
2023/05/21 05:29:24;;;;;;;7.40;3.20;;;;;;;16.24;74.95;101263.13;109532;1241;73508;-81
2023/05/21 05:31:53;;;;;;;8.90;3.60;;;;;;;16.30;74.51;101263.52;109557;1241;72693;-76
2023/05/21 05:34:22;;;;;;;7.10;3.40;;;;;;;16.27;74.08;101265.85;109640;1241;60610;-77
2023/05/21 05:36:51;;;;;;;6.70;3.50;;;;;;;16.33;74.02;101259.91;109553;1245;63236;-76
2023/05/21 05:39:20;;;;;;;8.50;3.30;;;;;;;16.36;73.72;101259.42;109712;1241;57267;-79
2023/05/21 05:41:49;;;;;;;7.70;3.10;;;;;;;16.41;73.75;101260.21;109668;1241;61898;-73
2023/05/21 05:44:17;;;;;;;7.10;3.30;;;;;;;16.40;73.33;101258.19;109571;1241;73931;-74
2023/05/21 05:46:46;;;;;;;6.60;3.30;;;;;;;16.56;72.90;101263.13;109666;1244;62189;-74
2023/05/21 05:49:15;;;;;;;7.70;3.40;;;;;;;16.64;72.01;101266.05;109763;1243;60038;-77
2023/05/21 05:51:44;;;;;;;12.10;4.20;;;;;;;16.65;71.91;101264.94;109832;1243;62504;-78
2023/05/21 05:54:13;;;;;;;7.50;3.60;;;;;;;16.76;72.03;101258.35;109832;1242;58854;-81
2023/05/21 05:56:42;;;;;;;6.80;2.90;;;;;;;16.93;71.84;101253.67;109819;1241;61243;-81
2023/05/21 05:59:10;;;;;;;5.20;2.90;;;;;;;16.96;71.28;101254.27;109759;1241;73528;-77
2023/05/21 06:01:41;;;;;;;7.10;3.40;;;;;;;16.96;70.72;101247.75;109627;1241;71529;-77
2023/05/21 06:04:11;;;;;;;6.00;3.30;;;;;;;16.95;70.82;101250.13;109797;1243;60766;-75
2023/05/21 06:06:40;;;;;;;11.30;3.80;;;;;;;17.01;70.72;101249.27;109616;1241;72715;-77
2023/05/21 06:09:09;;;;;;;7.70;3.70;;;;;;;17.04;70.12;101262.34;109705;1243;57781;-77
2023/05/21 06:11:38;;;;;;;7.40;3.00;;;;;;;17.10;70.20;101261.27;109637;1244;57654;-76
2023/05/21 06:14:07;;;;;;;7.70;3.30;;;;;;;17.20;70.28;101259.98;109622;1243;63247;-78
2023/05/21 06:16:36;;;;;;;6.00;3.30;;;;;;;17.27;70.15;101256.86;109630;1244;60911;-71
2023/05/21 06:19:05;;;;;;;5.30;2.90;;;;;;;17.38;70.38;101254.08;109533;1241;60993;-70
2023/05/21 06:21:34;;;;;;;7.00;3.30;;;;;;;17.41;70.38;101253.84;109726;1243;63252;-70
2023/05/21 06:24:04;;;;;;;6.50;3.20;;;;;;;17.58;70.19;101249.27;109539;1241;61236;-70
2023/05/21 06:26:33;;;;;;;9.70;3.20;;;;;;;17.68;69.45;101243.78;109834;1241;57635;-70
2023/05/21 06:29:03;;;;;;;6.70;3.10;;;;;;;17.81;69.51;101241.15;109521;1241;74057;-70
2023/05/21 06:31:32;;;;;;;4.50;2.90;;;;;;;17.87;68.89;101239.66;109634;1241;61528;-70
2023/05/21 06:34:01;;;;;;;6.80;3.10;;;;;;;17.94;69.03;101236.48;109744;1241;70692;-69
2023/05/21 06:36:31;;;;;;;6.80;2.90;;;;;;;17.97;68.70;101237.45;109712;1244;63582;-70
2023/05/21 06:39:00;;;;;;;5.80;3.20;;;;;;;18.09;69.14;101233.36;109681;1244;60460;-70
2023/05/21 06:41:29;;;;;;;6.20;2.80;;;;;;;18.19;68.14;101235.68;109705;1241;61070;-70
2023/05/21 06:44:02;;;;;;;6.90;3.30;;;;;;;18.11;67.48;101231.61;109689;1241;73906;-71
2023/05/21 06:46:49;;;;;;;8.00;3.00;;;;;;;18.17;68.57;101236.83;109767;1241;72633;-71
2023/05/21 06:49:19;;;;;;;6.90;3.10;;;;;;;18.40;68.15;101235.47;109453;1241;417978;-70
2023/05/21 06:51:48;;;;;;;9.60;3.60;;;;;;;18.54;64.13;101236.58;109626;1243;62783;-72
2023/05/21 06:54:17;;;;;;;3.80;2.80;;;;;;;18.62;62.18;101229.78;109758;1241;57320;-70
2023/05/21 06:56:46;;;;;;;7.40;3.10;;;;;;;18.78;61.84;101228.76;109673;1241;61189;-69
2023/05/21 06:59:15;;;;;;;7.60;2.90;;;;;;;18.80;61.33;101223.96;109775;1241;63343;-70
2023/05/21 07:01:44;;;;;;;7.80;3.40;;;;;;;18.92;60.84;101220.86;109781;1241;72156;-70
2023/05/21 07:04:13;;;;;;;9.70;3.00;;;;;;;19.05;60.59;101218.25;109661;1244;60312;-70
2023/05/21 07:06:43;;;;;;;7.60;3.30;;;;;;;19.12;59.83;101211.61;109607;1244;73531;-71
2023/05/21 07:09:12;;;;;;;7.30;3.20;;;;;;;19.13;59.35;101208.90;109641;1244;60725;-71
2023/05/21 07:11:40;;;;;;;9.40;3.00;;;;;;;19.10;59.22;101203.90;109497;1247;60843;-70
2023/05/21 07:14:10;;;;;;;5.10;2.80;;;;;;;19.19;59.47;101198.73;109603;1241;74011;-70
2023/05/21 07:16:39;;;;;;;6.40;3.10;;;;;;;19.27;58.84;101197.69;109445;1241;70400;-71
2023/05/21 07:19:08;;;;;;;5.10;2.70;;;;;;;19.48;58.87;101189.54;109441;1241;70861;-70
2023/05/21 07:21:37;;;;;;;7.60;2.90;;;;;;;19.51;57.94;101195.85;109520;1244;74039;-70
2023/05/21 07:24:06;;;;;;;9.20;3.30;;;;;;;19.40;57.64;101204.88;109234;1247;61909;-70
2023/05/21 07:26:38;;;;;;;9.00;3.40;;;;;;;19.40;57.90;101198.20;109333;1241;62129;-69
2023/05/21 07:29:07;;;;;;;5.40;3.20;;;;;;;19.50;58.01;101204.73;109324;1241;74297;-70
2023/05/21 07:31:35;;;;;;;6.30;3.20;;;;;;;19.57;57.64;101199.10;109421;1241;71930;-71
2023/05/21 07:34:04;;;;;;;4.80;2.60;;;;;;;19.58;57.47;101192.79;109328;1241;70774;-71
2023/05/21 07:36:33;;;;;;;5.80;3.10;;;;;;;19.81;57.33;101192.67;109396;1244;74280;-71
2023/05/21 07:39:02;;;;;;;7.60;3.10;;;;;;;19.75;57.40;101192.77;109354;1244;57772;-71
2023/05/21 07:41:31;;;;;;;9.60;3.00;;;;;;;19.84;57.62;101188.67;109371;1245;60337;-71
2023/05/21 07:44:01;;;;;;;5.90;3.10;;;;;;;20.01;57.44;101192.52;109429;1241;62686;-71
2023/05/21 07:46:31;;;;;;;6.60;2.80;;;;;;;20.10;56.80;101195.54;109571;1241;61470;-71
2023/05/21 07:49:00;;;;;;;11.70;3.00;;;;;;;20.09;57.05;101195.77;109594;1241;59884;-71
2023/05/21 07:51:29;;;;;;;6.50;3.50;;;;;;;20.14;56.96;101199.85;109568;1241;72677;-71
2023/05/21 07:53:58;;;;;;;7.10;3.10;;;;;;;20.13;56.94;101196.80;109689;1242;57479;-71
2023/05/21 07:56:32;;;;;;;8.40;3.40;;;;;;;20.33;56.20;101203.89;109620;1244;60377;-70
2023/05/21 07:59:00;;;;;;;4.40;2.70;;;;;;;20.29;56.20;101207.31;109634;1241;74301;-71
2023/05/21 08:01:29;;;;;;;6.90;3.20;;;;;;;20.26;56.33;101206.71;109641;1241;61436;-71
2023/05/21 08:04:04;;;;;;;8.90;3.40;;;;;;;20.29;56.39;101208.23;109640;1241;59491;-70
2023/05/21 08:06:34;;;;;;;9.50;3.40;;;;;;;20.31;56.67;101203.52;109502;1241;73986;-71
2023/05/21 08:09:04;;;;;;;7.40;3.10;;;;;;;20.47;56.29;101205.61;109719;1243;60772;-70
2023/05/21 08:11:33;;;;;;;6.20;3.10;;;;;;;20.52;55.79;101205.48;109632;1241;60911;-71
2023/05/21 08:14:03;;;;;;;8.10;3.70;;;;;;;20.57;56.08;101202.63;109703;1242;63012;-70
2023/05/21 08:16:32;;;;;;;6.90;3.30;;;;;;;20.52;56.13;101210.08;109628;1241;61613;-70
2023/05/21 08:19:01;;;;;;;7.70;3.90;;;;;;;20.52;56.24;101202.22;109662;1241;68121;-71
2023/05/21 08:21:31;;;;;;;10.10;3.50;;;;;;;20.62;56.29;101198.69;109550;1241;62960;-70
2023/05/21 08:24:01;;;;;;;7.50;3.50;;;;;;;20.80;56.12;101197.11;109679;1242;59802;-71
2023/05/21 08:26:30;;;;;;;11.10;4.10;;;;;;;21.03;55.20;101194.74;109578;1242;57703;-71
2023/05/21 08:28:59;;;;;;;9.90;3.80;;;;;;;21.06;55.03;101188.57;109706;1241;62159;-71
2023/05/21 08:31:28;;;;;;;6.10;3.80;;;;;;;21.11;54.72;101195.17;109712;1241;61786;-71
2023/05/21 08:33:57;;;;;;;9.20;3.80;;;;;;;21.17;54.29;101195.55;109742;1241;60037;-70
2023/05/21 08:36:35;;;;;;;9.30;4.60;;;;;;;21.18;54.40;101187.98;109733;1241;62469;-70
2023/05/21 08:39:08;;;;;;;15.80;4.80;;;;;;;21.31;53.93;101196.99;109671;1241;57746;-70
2023/05/21 08:41:40;;;;;;;8.20;3.60;;;;;;;21.37;53.73;101195.13;109663;1241;57670;-71
2023/05/21 08:44:11;;;;;;;6.90;3.80;;;;;;;21.42;53.73;101190.89;109773;1241;62152;-71
2023/05/21 08:46:44;;;;;;;10.50;3.70;;;;;;;21.41;53.91;101186.52;109424;1241;61647;-71
2023/05/21 08:49:14;;;;;;;;;;;;;;;21.55;54.20;101181.83;109534;1241;70478;-71
2023/05/21 08:51:46;;;;;;;5.00;3.40;;;;;;;21.67;53.16;101186.70;109489;1245;63592;-70
2023/05/21 08:54:15;;;;;;;5.80;3.60;;;;;;;21.77;52.73;101184.86;109582;1241;58373;-70
2023/05/21 08:56:48;;;;;;;6.60;3.90;;;;;;;21.77;52.64;101180.08;109466;1241;61043;-71
2023/05/21 08:59:18;;;;;;;9.40;4.00;;;;;;;21.87;52.41;101180.45;109515;1241;74160;-71
2023/05/21 09:01:48;;;;;;;7.00;3.60;;;;;;;21.86;52.33;101174.30;109604;1241;63036;-70
2023/05/21 09:04:27;;;;;;;11.60;3.90;;;;;;;21.91;52.75;101174.23;109534;1241;60397;-72
2023/05/21 09:06:58;;;;;;;8.50;3.30;;;;;;;22.02;52.83;101163.73;109605;1241;73531;-72
2023/05/21 09:09:54;;;;;;;10.90;3.50;;;;;;;22.18;52.45;101165.59;109464;1244;57215;-73
2023/05/21 09:12:26;;;;;;;6.30;3.70;;;;;;;22.17;52.33;101161.48;109604;1241;60435;-72
2023/05/21 09:15:00;;;;;;;9.40;3.80;;;;;;;22.20;52.09;101160.94;109470;1241;62709;-72
2023/05/21 09:17:34;;;;;;;8.80;3.70;;;;;;;22.20;52.43;101163.30;109486;1241;61648;-72
2023/05/21 09:20:16;;;;;;;6.00;3.80;;;;;;;22.39;52.01;101165.16;109681;1241;68773;-73
2023/05/21 09:22:54;;;;;;;7.90;4.00;;;;;;;22.50;51.76;101159.47;109637;1240;63430;-72
2023/05/21 09:25:28;;;;;;;5.40;3.60;;;;;;;22.78;51.19;101170.56;109454;1245;58768;-72
2023/05/21 09:27:59;;;;;;;10.50;3.60;;;;;;;22.80;50.31;101165.05;109675;1241;57449;-73
2023/05/21 09:30:28;;;;;;;8.30;3.50;;;;;;;22.69;50.40;101159.22;109760;1241;62953;-73
2023/05/21 09:33:02;;;;;;;6.40;3.40;;;;;;;22.76;51.37;101159.63;109705;1241;71234;-72
2023/05/21 09:35:32;;;;;;;8.00;3.50;;;;;;;22.93;50.83;101160.59;109807;1241;60104;-71
2023/05/21 09:38:08;;;;;;;7.30;3.30;;;;;;;22.90;50.23;101154.76;109606;1241;63398;-73
2023/05/21 09:40:43;;;;;;;6.30;3.40;;;;;;;23.00;50.35;101147.73;109621;1245;59436;-73
2023/05/21 09:43:17;;;;;;;7.30;3.70;;;;;;;23.14;49.86;101153.23;109609;1241;57237;-72
2023/05/21 09:45:54;;;;;;;6.10;3.50;;;;;;;23.11;49.84;101148.40;109623;1241;63455;-72
2023/05/21 09:48:40;;;;;;;10.80;3.80;;;;;;;23.19;50.31;101145.72;109570;1241;62369;-72
2023/05/21 09:51:20;;;;;;;9.20;3.80;;;;;;;23.31;49.75;101147.79;109676;1241;70577;-72
2023/05/21 09:53:59;;;;;;;7.00;3.80;;;;;;;23.39;48.96;101143.97;109554;1241;74365;-72
2023/05/21 09:56:30;;;;;;;8.30;3.70;;;;;;;23.53;49.03;101138.70;109701;1241;61732;-70
2023/05/21 09:59:05;;;;;;;7.20;3.80;;;;;;;23.63;48.56;101136.63;109566;1241;60961;-72
2023/05/21 10:01:35;;;;;;;6.90;3.60;;;;;;;23.78;47.39;101134.19;109824;1241;63404;-72
2023/05/21 10:04:07;;;;;;;9.00;4.00;;;;;;;23.83;47.74;101130.31;109689;1241;62070;-75
2023/05/21 10:06:43;;;;;;;5.20;3.60;;;;;;;23.96;47.36;101127.67;109534;1241;60717;-71
2023/05/21 10:09:14;;;;;;;7.20;3.40;;;;;;;24.17;46.48;101124.90;109481;1241;74494;-71
2023/05/21 10:11:44;;;;;;;7.60;4.00;;;;;;;24.15;47.13;101124.48;109506;1241;57678;-71
2023/05/21 10:14:21;;;;;;;7.00;3.80;;;;;;;24.28;46.69;101126.04;109484;1241;57114;-71
2023/05/21 10:16:52;;;;;;;5.80;3.70;;;;;;;24.40;46.00;101124.35;109592;1241;62957;-72
2023/05/21 10:19:23;;;;;;;7.50;3.90;;;;;;;24.60;45.95;101131.70;109531;1241;72101;-72
2023/05/21 10:21:53;;;;;;;5.70;3.90;;;;;;;24.71;44.81;101124.78;109609;1241;70121;-70
2023/05/21 10:24:23;;;;;;;8.70;4.10;;;;;;;24.89;45.16;101123.48;109518;1241;74180;-72
2023/05/21 10:26:52;;;;;;;7.70;4.40;;;;;;;24.57;44.50;101115.67;109545;1243;61045;-72
2023/05/21 10:29:22;;;;;;;6.90;4.10;;;;;;;24.77;44.76;101125.91;109560;1242;57645;-71
2023/05/21 10:31:51;;;;;;;7.70;3.80;;;;;;;25.15;43.72;101123.77;109478;1241;73418;-72
2023/05/21 10:34:23;;;;;;;7.40;3.80;;;;;;;25.24;43.28;101121.37;109455;1241;63087;-72
2023/05/21 10:36:54;;;;;;;4.90;3.60;;;;;;;25.52;42.73;101116.77;109474;1241;59985;-73
2023/05/21 10:39:24;;;;;;;8.70;4.40;;;;;;;26.24;42.36;101113.48;109560;1241;63366;-73
2023/05/21 10:42:11;;;;;;;5.30;2.90;;;;;;;26.35;41.21;101115.71;109472;1242;57726;-71
2023/05/21 10:45:05;;;;;;;8.30;3.50;;;;;;;26.37;40.65;101110.32;109581;1242;57266;-73
2023/05/21 10:48:13;;;;;;;5.60;3.70;;;;;;;26.00;40.62;101112.38;109678;1241;74227;-74
2023/05/21 10:51:07;;;;;;;8.90;3.60;;;;;;;26.15;40.49;101108.60;109755;1241;72055;-73
2023/05/21 10:53:45;;;;;;;5.60;3.50;;;;;;;25.75;40.73;101108.22;109585;1242;59575;-71
2023/05/21 10:56:58;;;;;;;10.00;4.10;;;;;;;26.03;40.74;101102.22;109696;1241;73827;-72
2023/05/21 10:59:42;;;;;;;5.50;3.50;;;;;;;26.27;39.56;101098.48;109510;1243;57081;-74
2023/05/21 11:02:14;;;;;;;6.30;3.60;;;;;;;26.63;38.81;101097.23;109303;1241;57733;-74
2023/05/21 11:04:44;;;;;;;6.70;3.50;;;;;;;26.27;38.60;101091.18;109366;1241;63401;-73
2023/05/21 11:07:21;;;;;;;7.30;3.60;;;;;;;26.63;38.66;101092.84;109505;1241;60873;-76
2023/05/21 11:09:50;;;;;;;7.50;3.50;;;;;;;27.28;38.13;101092.99;109550;1241;68884;-75
2023/05/21 11:12:22;;;;;;;5.80;3.60;;;;;;;27.22;37.91;101095.17;109417;1241;74359;-72
2023/05/21 11:14:56;;;;;;;7.10;3.40;;;;;;;26.60;38.41;101098.20;109449;1241;62050;-74
2023/05/21 11:17:39;;;;;;;6.40;3.20;;;;;;;26.59;38.71;101099.70;109546;1241;57750;-72
2023/05/21 11:20:16;;;;;;;9.50;3.50;;;;;;;26.39;38.50;101099.89;109485;1241;62695;-73
2023/05/21 11:22:45;;;;;;;7.70;3.40;;;;;;;26.20;38.66;101099.41;109547;1241;63398;-73
2023/05/21 11:25:14;;;;;;;5.90;3.20;;;;;;;26.35;38.69;101098.98;109593;1242;60497;-74
2023/05/21 11:27:43;;;;;;;10.10;3.50;;;;;;;27.01;38.30;101101.95;109365;1245;63430;-73
2023/05/21 11:30:18;;;;;;;7.80;3.50;;;;;;;28.03;35.53;101100.09;109583;1241;60616;-72
2023/05/21 11:33:19;;;;;;;8.00;3.40;;;;;;;28.67;33.99;101094.55;109311;1240;57441;-72